Log In
SECRET SQUIRREL CX • Nov 27 2021 • Raynham, MA
Race uploaded by Julie Renquin csv | json
Series: NECXSS 2021
5.3
2.8
4.8
5.5
5.3
Partly Cloudy, 37 degrees, wind 14 mph
Is there a Strava segment for this course? Paste the url here:
Categories
Race Pictures
Know where to find pictures from this race? Share the love by adding a Photo Url:
Note: sharing private Facebook albums is not exactly "da love." Remember to make it public!
 
Race RatingCast Vote
5.3
Beers
2.8
Moisture
4.8
Accel
5.5
Tech
5.3
Elevation
By Age: All | U20 | 20-29 | 30-39 | 40-49 | 50-59 | 60+ | Custom
By Category: All | Custom
Pl First NameLast NameTeamTime Lap 1 Lap 2 Lap 3 Lap 4 Lap 5 Lap 6
1 Miles Mattern Cannondale p/b Cyclocrossworld.com 0:46:43 0:05:52 0:05:47 0:05:54 0:05:50 0:05:55 0:05:48
2 Andy Scott Riverside Racing 0:47:08 0:05:50 0:05:45 0:05:56 0:05:50 0:05:55 0:05:50
3 Patrick Collins Assabet River Bicycles 0:47:49 0:05:58 0:05:57 0:05:58 0:05:58 0:05:54 0:05:58
4 Nate Morse 0:48:16 0:05:57 0:05:48 0:06:04 0:05:59 0:06:05 0:06:04
5 Gabriel Anthony 0:48:42 0:06:05 0:06:05 0:06:01 0:06:02 0:06:03 0:05:59
6 Ryan Avery AP Junior Development p/b Corner Cy 0:48:59 0:06:18 0:06:03 0:06:19 0:06:07 0:06:02 0:06:06
7 Miles Billings 545 Velo 0:49:13 0:06:12 0:06:00 0:06:05 0:06:10 0:06:07 0:06:12
8 Adam Myerson Cycle-Smart 0:49:53 0:06:11 0:06:09 0:06:16 0:06:14 0:06:19 0:06:21
9 Ethan Delgrosso New England Devo p/b Cadence Wealth 0:50:00 0:06:13 0:06:10 0:06:16 0:06:16 0:06:24 0:06:16
10 Michael Marston 0:50:06 0:06:48 0:06:11 0:06:15 0:06:11 0:06:09 0:06:10
11 Dillon Cosper 0:50:07 0:06:33 0:06:13 0:06:18 0:06:12 0:06:20 0:06:13
12 Josh Anthony Cyclocrossworld.com 0:50:09 0:06:03 0:06:16 0:06:18 0:06:27 0:06:25 0:06:17
13 Brian Hughes Fast Splits 0:50:45 0:06:45 0:06:11 0:06:15 0:06:16 0:06:16 0:06:21
14 Brian Anderson Minuteman Road Club 0:50:56 0:06:20 0:06:20 0:06:19 0:06:24 0:06:24 0:06:25
15 Sam Morse Corner Cycle/FinKraft 0:51:02 0:06:38 0:06:24 0:06:25 0:06:23 0:06:14 0:06:20
16 Cole Ellison Pratt Racing 0:51:07 0:06:37 0:06:13 0:06:20 0:06:25 0:06:27 0:06:28
17 Jack Bernhard Minuteman/Empire Automation p/b Tom 0:51:09 0:06:16 0:06:16 0:06:31 0:06:19 0:06:25 0:06:29
18 Matthew Graham-o'regan Pratt Racing 0:51:10 0:06:34 0:06:20 0:07:05 0:06:20 0:06:10 0:06:10
19 Mike Rowell TwoAdventures - Bikeway Source Raci 0:51:52 0:06:39 0:06:16 0:06:27 0:06:26 0:06:33 0:06:27
20 Jeff Fairbanks Fritz Bicycle Shop 0:52:20 0:06:19 0:06:20 0:06:23 0:06:25 0:06:26 0:06:35
21 Nick Hight-huf Northampton Cycling Club 0:52:31 0:06:44 0:06:42 0:06:22 0:06:24 0:06:15 0:06:34
22 Gus Lellman Joes Garage 0:52:31 0:06:36 0:06:29 0:06:25 0:06:35 0:06:29 0:06:57
23 John Sakalowsky Cycle-Smart + Romeo 0:46:57 0:06:43 0:06:49 0:06:42 0:06:42 0:06:34 0:06:48
24 Mark Hewitt JAM / NCC 0:46:58 0:06:10 0:06:04 0:06:33 0:07:18 0:07:15 0:06:49
25 Brant Hornberger BikeReg 0:46:58 0:06:53 0:06:41 0:06:46 0:06:42 0:06:32 0:06:37
26 Jacob Gilson AP Junior Development p/b Corner Cy 0:47:00 0:06:56 0:06:33 0:06:54 0:06:36 0:06:30 0:06:49
27 Peter Miller 0:47:01 0:06:58 0:06:38 0:06:48 0:06:40 0:06:37 0:06:39
28 Chase Kerzel Sea Sorts Cyclery 0:47:04 0:07:06 0:06:38 0:06:41 0:06:42 0:06:38 0:06:36
29 Tim Goodell 0:47:06 0:06:47 0:06:27 0:06:32 0:06:45 0:06:54 0:06:50
30 Paul Vogel BMB Racing 0:47:13 0:07:05 0:06:38 0:06:43 0:06:39 0:06:40 0:06:43
31 John Golden Corner Cycle / Finkraft 0:47:22 0:06:46 0:06:46 0:06:47 0:06:42 0:06:42 0:06:45
32 Eric Morris BMB Racing 0:47:33 0:07:07 0:06:39 0:06:41 0:06:42 0:06:44 0:06:42
33 William Crabtree Community Bicycle Racing 0:48:18 0:07:09 0:06:43 0:06:41 0:06:46 0:06:55 0:06:57
34 John Skarupa Sea Sports Cyclery & Outdoor 0:48:36 0:07:03 0:06:45 0:06:48 0:07:41 0:06:41 0:06:52
35 Henry Lord Kelly Benefit Strategies Elite Devo 0:52:23 0:06:36 0:06:43 0:07:05 0:07:18 0:07:28 0:07:30
36 Benjamin Koyle Minuteman Road Club 0:52:57 0:09:17 0:08:22 0:10:37 0:08:20 0:08:08 0:08:10
37 Jeff Dieffenbach 545 Velo 0:53:46 0:08:39 0:08:45 0:09:10 0:09:01 0:09:25 0:08:44
DNF Morgan Macleod B2C2 p/b JRA Cycles 0:07:12 0:07:01 0:07:17 0:07:15 0:07:41
Finishers: Cat 1: 9   Cat 2: 11   Cat 3: 16   Cat 4: 1   Cat ?: 1  
By Age: All | U20 | 20-29 | 30-39 | 40-49 | 50-59 | 60+ | Custom
By Category: All | Custom
Pl First NameLast NameTeamTime Lap 1 Lap 2 Lap 3 Lap 4 Lap 5 Lap 6
1 Lucas Provost BZ RIDERS/caperacing.com 0:46:02 0:07:30 0:07:35 0:07:46 0:07:50 0:07:48 0:07:30
2 Henry Van den broek Pedal Power Coaching 0:46:20 0:07:49 0:07:48 0:07:40 0:07:43 0:07:40 0:07:38
3 Jeffrey Wilson Team Wompy 0:41:57 0:08:13 0:08:39 0:08:25 0:08:11 0:08:27
4 Christopher Burke 0:42:44 0:08:31 0:08:29 0:08:28 0:08:40 0:08:34
5 Tom Reilly Motorcycles508/Ebikes508 0:44:04 0:09:13 0:08:32 0:08:46 0:08:52 0:08:39
6 Clayton Abrams 0:45:01 0:09:03 0:08:41 0:08:46 0:08:51 0:09:38
7 Leon Palandjian Ride Headquarters 0:48:42 0:09:12 0:09:20 0:09:47 0:10:07 0:10:14
8 Patria Vandermark Ride Headquarters / Pedal Power 0:49:30 0:09:56 0:10:01 0:09:44 0:09:54 0:09:54
Finishers: Cat 3: 2   Cat 4: 1   Cat 5: 1   Cat ?: 4  
By Age: All | U20 | 20-29 | 30-39 | 40-49 | 50-59 | 60+ | Custom
By Category: All | Custom
Pl First NameLast NameTeamTime Lap 1 Lap 2
1 Geoffrey Brelsford 0:15:59 0:07:38 0:08:20
2 Chris Murphy 0:16:51 0:08:43 0:08:07
3 Craig Hartigan 0:18:13 0:09:36 0:08:36
4 Craig Carbone 0:19:02 0:10:04 0:08:58
5 Cj Hartigan 0:20:36 0:11:03 0:09:33
Finishers: Cat 5: 2   Cat ?: 3  
By Age: All | U20 | 20-29 | 30-39 | 40-49 | 50-59 | 60+ | Custom
By Category: All | Custom
Pl First NameLast NameTeamTime Lap 1 Lap 2
1 Timothy Craddock Sea Sports Cyclery and Outdoor 0:15:01 0:07:44 0:07:16
2 William Siminski Devo Cycling Cape Cod 0:15:02 0:07:43 0:07:18
3 Eli Billings New England Development p/b Cadence 0:16:17 0:08:14 0:08:03
4 Max Winn Tridents 0:18:04 0:09:07 0:08:56
5 Tristan Healey CCF Devo / Stage 1 0:19:23 0:09:16 0:10:06
6 Eamon Miller AP Junior Development p/b Corner Cy 0:19:37 0:10:42 0:08:55
7 Tyler Abrams HUP United 0:20:11 0:10:20 0:09:51
8 Ryan Vieira Bobcats 0:20:42 0:10:21 0:10:21
9 Reid Purwin Minuteman Road Club 0:20:50 0:10:41 0:10:08
10 Huxley Harple Aquidneck Cyclocross 0:20:51 0:10:33 0:10:17
11 Benjamin Zarotny Joe's Garage 0:22:38 0:11:31 0:11:07
12 Alexander Lampe 0:22:39 0:11:36 0:11:02
13 Paul Castonguay 0:25:17 0:11:34 0:13:42
14 James Esten Hillsborough Hawks 0:26:54 0:13:55 0:12:58
15 Nikolas Stearns Bobcats 0:27:54 0:12:42 0:15:11
16 Jackson Pakenham Aquidneck Cyclocross 0:31:02 0:13:56 0:17:05
17 Lex Picillo NS Tridents 0:33:37 0:11:26 0:22:10
18 Arden Silva-baroody 0:15:09 0:15:09
Finishers: Cat 4: 1   Cat 5: 10   Cat ?: 7  
By Age: All | U20 | 20-29 | 30-39 | 40-49 | 50-59 | 60+ | Custom
By Category: All | Custom
Pl First NameLast NameTeamTime Lap 1 Lap 2
1 Reese Berman Riverside Racing 0:14:47 0:07:20 0:07:26
2 Keenan Billings 0:15:17 0:07:32 0:07:44
3 Spencer Gibson Hillsborough Hawks 0:15:19 0:07:38 0:07:40
4 Eric Figueroa torres 1 PVD Cycling 0:19:16 0:08:58 0:10:18
5 Sean Murphy 0:19:31 0:09:00 0:10:30
6 Niklas Svenstrup Aquidneck Cyclocross 0:21:50 0:10:42 0:11:08
7 Nicholas Colomey 0:23:01 0:11:25 0:11:35
Finishers: Cat 3: 1   Cat 5: 5   Cat ?: 1  
By Age: All | U20 | 20-29 | 30-39 | 40-49 | 50-59 | 60+ | Custom
By Category: All | Custom
Pl First NameLast NameTeamTime Lap 1 Lap 2 Lap 3 Lap 4 Lap 5 Lap 6
1 Patrick Collins Assabet River Bicycles 0:42:24 0:06:09 0:05:52 0:06:00 0:05:57 0:06:01 0:06:00
2 Michael Wissell B2C2 p/b JRA Cycles 0:42:56 0:06:06 0:05:57 0:06:08 0:06:11 0:06:08 0:06:12
3 Donny Green 1 PVD Cycling 0:43:08 0:06:10 0:05:58 0:06:15 0:06:09 0:06:11 0:06:09
4 Nick Weigel Wellness In Motion Boston 0:45:08 0:06:15 0:06:16 0:06:30 0:06:25 0:06:35 0:06:36
5 Luke Plummer B2C2 p/b JRA Cycles 0:45:20 0:06:37 0:06:23 0:06:25 0:06:24 0:06:34 0:06:23
6 Shane Black-Macken pedalpowertraining.com 0:46:01 0:06:35 0:06:31 0:06:41 0:06:24 0:06:28 0:06:41
7 Herb Grignon Fritz's Bicycle Shop 0:46:57 0:06:41 0:06:31 0:06:35 0:06:38 0:06:49 0:06:49
8 Brian Anderson Minuteman Road Club 0:47:24 0:06:36 0:06:41 0:06:57 0:06:49 0:06:38 0:06:55
9 Matt Giles 0:48:19 0:06:56 0:06:48 0:06:58 0:06:56 0:06:53 0:06:50
10 Kevin Orlowski Chainline Cycles 0:48:29 0:06:32 0:06:35 0:06:52 0:07:06 0:07:02 0:07:11
11 John Skarupa Sea Sports Cyclery & Outdoor 0:48:44 0:07:22 0:06:49 0:06:46 0:06:51 0:06:45 0:07:03
12 Chris Busick Minuteman Road Club 0:49:17 0:07:16 0:06:55 0:06:43 0:06:52 0:07:08 0:07:03
13 Michael Eck Northeastern University 0:49:35 0:07:00 0:07:12 0:06:44 0:06:52 0:07:07 0:07:01
14 Edward Parsons HUP United 0:50:06 0:07:06 0:07:03 0:06:46 0:07:00 0:07:14 0:07:11
15 Anthony Case Minuteman Road Club 0:43:22 0:07:05 0:07:03 0:07:19 0:07:24 0:07:15 0:07:13
16 Brian Massey Minuteman Road Club 0:43:55 0:07:35 0:07:02 0:07:03 0:07:18 0:07:21 0:07:33
17 Matt Aumiller BC High 0:44:08 0:07:11 0:07:17 0:07:17 0:07:19 0:07:31 0:07:31
18 Derek Griggs Recycled Sports 0:44:34 0:07:12 0:07:08 0:07:23 0:07:33 0:07:40 0:07:37
19 Gregory Finn 0:45:01 0:07:28 0:07:19 0:07:27 0:07:42 0:07:33 0:07:29
20 Ian Stratton Minuteman Road Club 0:45:03 0:07:29 0:07:18 0:07:28 0:07:42 0:07:35 0:07:28
21 George Lewis Team Bikenetic 0:45:07 0:07:13 0:06:58 0:08:37 0:07:17 0:07:35 0:07:24
22 Maximilian Jentzsch B2C2 p/b JRA Cycles 0:45:11 0:07:25 0:07:14 0:07:30 0:07:42 0:07:40 0:07:37
23 Jason Behringer NBX 0:46:37 0:07:33 0:07:21 0:07:57 0:07:30 0:08:17 0:07:58
24 Dmitro Martynowych B2C2 p/b JRA Cycles 0:46:41 0:07:57 0:07:53 0:07:53 0:07:32 0:07:47 0:07:35
25 Nicolas Amato MIT 0:46:43 0:08:23 0:07:57 0:07:34 0:07:40 0:07:38 0:07:28
26 Morgan Macleod B2C2 p/b JRA Cycles 0:46:50 0:07:10 0:07:35 0:08:02 0:07:54 0:08:13 0:07:52
27 Geoff Williams NBX 0:47:08 0:07:54 0:07:46 0:07:49 0:07:49 0:07:48 0:07:59
28 Michael Chiauzzi 0:47:11 0:08:15 0:07:31 0:07:39 0:07:47 0:08:06 0:07:51
29 Shawn Lowney SVC/BikeWorks 0:47:57 0:08:25 0:07:56 0:07:46 0:07:51 0:08:00 0:07:57
30 Benjamin Koyle Minuteman Road Club 0:48:16 0:08:18 0:07:52 0:08:02 0:08:06 0:08:03 0:07:53
31 Thomas Ollila NECT 0:48:22 0:08:31 0:07:49 0:07:50 0:07:52 0:08:20 0:07:57
32 Michael Bradford 0:48:47 0:08:12 0:07:53 0:08:04 0:08:13 0:08:13 0:08:10
33 Joshua Calvi Fritz's Bicycle Shop 0:49:52 0:08:10 0:08:08 0:08:30 0:08:31 0:08:16 0:08:15
34 William Skirkey Fritz's Bicycle Shop 0:49:56 0:08:27 0:08:29 0:08:18 0:08:15 0:08:21 0:08:03
35 David Howland Fritz's Bicycle Shop 0:51:14 0:08:24 0:08:06 0:08:40 0:08:17 0:08:30 0:09:15
36 Jacob Coblentz B2C2 PB JRA CYCLES 0:43:34 0:08:29 0:08:26 0:08:37 0:08:50 0:09:10
37 Anthony Craig Fritz’s Bike Shop 0:44:05 0:09:10 0:08:15 0:08:28 0:08:32 0:09:39
38 Skyler Fugelso 0:44:22 0:08:35 0:08:30 0:08:40 0:09:07 0:09:28
39 Lawrence Purtill Stedmans/MeltSnow Racing 0:48:25 0:09:05 0:11:15 0:09:43 0:08:51 0:09:28
40 Martin Meterko 0:43:18 0:14:45 0:09:54 0:09:16 0:09:23
41 Hank Aumiller BC High 0:42:44 0:10:14 0:20:53 0:11:35
DNF Nick Lawlor 0:07:26 0:07:35 0:08:03 0:08:02 0:08:17
DNF Nick Arango 0:07:37 0:06:58 0:06:55 0:07:04
DNF Matthew Reinhardt Aquidneck Cyclocross 0:06:59 0:07:06
Finishers: Cat 1: 2   Cat 2: 4   Cat 3: 16   Cat 4: 14   Cat 5: 4   Cat ?: 4  
By Age: All | U20 | 20-29 | 30-39 | 40-49 | 50-59 | 60+ | Custom
By Category: All | Custom
Pl First NameLast NameTeamTime Lap 1 Lap 2 Lap 3 Lap 4 Lap 5 Lap 6
1 Christopher Weidman 0:43:32 0:06:54 0:07:00 0:07:18 0:07:19 0:07:31 0:07:27
2 Ben Kelley Deer Farm CX 0:44:21 0:07:11 0:07:21 0:07:18 0:07:25 0:07:36 0:07:27
3 Brian Barker 0:44:22 0:07:45 0:07:16 0:07:18 0:07:16 0:07:33 0:07:11
4 Niles Kuronen Engine Room Velo 0:44:56 0:07:38 0:07:22 0:07:30 0:07:24 0:07:32 0:07:28
5 James Godbey 545 Velo 0:45:33 0:07:36 0:07:29 0:07:26 0:07:34 0:07:38 0:07:47
6 Robert Harple Aquidneck Cyclocross 0:45:55 0:07:03 0:07:30 0:07:44 0:07:44 0:07:59 0:07:51
7 Shawn Lowney SVC/BikeWorks 0:46:02 0:07:53 0:07:44 0:07:38 0:07:29 0:07:41 0:07:34
8 Mark Schnepel 0:46:07 0:07:31 0:07:32 0:07:34 0:07:59 0:07:42 0:07:46
9 Reese Berman Riverside Racing 0:46:09 0:07:05 0:07:24 0:07:26 0:07:56 0:08:19 0:07:57
10 Matthew Falconeiri Independent 0:46:29 0:07:49 0:07:35 0:07:46 0:07:50 0:07:49 0:07:38
11 Brian Dell 0:46:37 0:07:41 0:07:32 0:07:40 0:07:49 0:07:51 0:08:02
12 Geoffrey Brelsford 0:46:38 0:08:21 0:07:29 0:07:37 0:07:42 0:07:46 0:07:41
13 Thomas Van dyck community bike racing 0:46:40 0:08:06 0:07:20 0:08:04 0:08:03 0:07:33 0:07:31
14 Peter O'brien Steve the Bike Guy 0:46:48 0:07:48 0:07:35 0:07:38 0:08:02 0:07:50 0:07:52
15 Tobias Frost 0:46:55 0:07:46 0:07:54 0:07:52 0:07:46 0:07:47 0:07:48
16 Caleb Frost 0:47:05 0:07:56 0:07:38 0:07:45 0:07:55 0:07:57 0:07:51
17 Dmitro Martynowych B2C2 p/b JRA Cycles 0:47:20 0:07:53 0:07:49 0:07:54 0:07:56 0:07:57 0:07:50
18 Kevin Brogle Competitive Edge Racing 0:47:27 0:07:52 0:07:41 0:07:59 0:07:58 0:07:57 0:07:58
19 Stephen Vernon 0:47:35 0:07:28 0:07:41 0:08:01 0:08:13 0:08:13 0:07:56
20 Kelvin Ma 0:47:42 0:07:59 0:07:44 0:07:51 0:07:56 0:08:08 0:08:02
21 Peter Graeber Ten Speed Spokes 0:47:54 0:07:57 0:07:59 0:07:55 0:07:59 0:07:58 0:08:02
22 Jeff Dieffenbach 545 Velo 0:48:14 0:07:55 0:07:49 0:07:58 0:08:03 0:08:06 0:08:20
23 Bradford Berry 0:48:35 0:08:55 0:07:55 0:08:10 0:07:52 0:07:41 0:08:00
24 Nicholas Weissman lafrance Goodale’s Bike Shop 0:48:55 0:08:28 0:07:57 0:07:54 0:07:48 0:07:58 0:08:47
25 Nicolas Amato MIT 0:49:17 0:08:23 0:08:24 0:08:06 0:08:06 0:08:09 0:08:05
26 Cory Collins Bikebarn Racing 0:49:17 0:09:08 0:08:20 0:07:54 0:08:00 0:07:57 0:07:55
27 Lars Svenstrup Aquidneck Cyclocross 0:49:56 0:08:19 0:08:09 0:08:12 0:08:17 0:08:29 0:08:27
28 Kenneth Channell 0:49:58 0:08:20 0:08:19 0:08:24 0:08:13 0:08:18 0:08:22
29 Jeremy Whitelock 0:50:02 0:08:42 0:08:17 0:08:09 0:08:18 0:08:13 0:08:19
30 Warren Angell NBX 0:50:04 0:08:45 0:08:11 0:08:11 0:08:09 0:08:19 0:08:26
31 Martin Meterko 0:50:10 0:07:51 0:08:25 0:08:34 0:08:23 0:08:20 0:08:34
32 Joseph Raccuglia 0:50:23 0:08:01 0:08:16 0:08:42 0:08:40 0:08:27 0:08:14
33 Brian Cauti It's Just A Hill 0:50:26 0:08:59 0:08:03 0:08:19 0:08:26 0:08:24 0:08:12
34 Elijah Bova Uconns unofficial representative 0:50:35 0:08:25 0:08:05 0:08:36 0:08:36 0:08:28 0:08:23
35 Richard Ditomassi South Shore Bikers 0:50:41 0:08:27 0:08:04 0:07:39 0:08:06 0:07:58 0:10:25
36 David Porter 0:50:51 0:08:26 0:08:09 0:08:27 0:08:19 0:08:36 0:08:52
37 Nicholas Tham MIT Cycling 0:51:15 0:07:34 0:07:47 0:07:57 0:08:02 0:09:01 0:10:51
38 Sean Hourihan D3 Racing 0:51:44 0:08:16 0:08:36 0:08:30 0:08:46 0:08:46 0:08:48
39 Benj Lennon Muddy Pup 0:52:24 0:09:39 0:08:18 0:08:47 0:08:22 0:08:18 0:08:57
40 Jeremy Blackowicz HUP United 0:52:47 0:07:42 0:07:56 0:07:58 0:08:10 0:08:16 0:12:42
41 Wojciech Krajewski 0:43:57 0:08:47 0:08:41 0:08:52 0:09:04 0:08:32
42 Brian Lawlor 0:44:04 0:09:11 0:08:37 0:08:37 0:08:41 0:08:56
43 Brian Ayotte BSST 0:44:15 0:10:06 0:08:47 0:08:16 0:08:36 0:08:27
44 Adam Beck 0:44:16 0:09:01 0:08:39 0:09:04 0:08:43 0:08:46
45 Ryan Zygarowski Competitive Edge Racing 0:44:20 0:08:57 0:08:44 0:09:18 0:08:32 0:08:46
46 Jason Roberts Independent 0:44:33 0:09:39 0:08:46 0:08:38 0:08:33 0:08:55
47 Steven Pereira Swansea Velo Club/Bikeworks 0:44:48 0:10:07 0:08:44 0:08:43 0:08:40 0:08:32
48 Doug Roscoe 0:44:55 0:09:10 0:08:40 0:08:53 0:09:07 0:09:04
49 Bayard Dodge 545 Velo 0:45:11 0:09:57 0:09:03 0:08:47 0:08:39 0:08:43
50 Matthew Steinkamp SVC/BikeWorks 0:45:27 0:09:37 0:08:54 0:08:47 0:09:17 0:08:50
51 Dana Brown 545 Velo 0:45:28 0:09:33 0:09:16 0:09:05 0:08:46 0:08:46
52 Jon Stenning It's Just A Hill 0:45:42 0:10:45 0:08:22 0:08:58 0:08:40 0:08:55
53 Dylan Brody AP Junior Development p/b Corner Cy 0:45:47 0:09:05 0:08:22 0:10:59 0:08:47 0:08:32
54 Shane Delgrosso ME 0:45:49 0:08:43 0:09:10 0:09:18 0:09:11 0:09:25
55 Eben Shook 0:45:50 0:10:09 0:09:07 0:08:56 0:08:44 0:08:53
56 Hugh Hallawell Zoom Multisport 0:45:51 0:10:10 0:08:49 0:09:02 0:08:54 0:08:53
57 Joshua Wise Emarhavil Heavy Industries p/b abje 0:46:12 0:09:57 0:09:01 0:09:13 0:09:01 0:08:59
58 Craig Lampert 0:46:25 0:09:48 0:08:48 0:09:06 0:09:25 0:09:16
59 Richard Cole 0:46:32 0:09:44 0:09:10 0:09:04 0:09:36 0:08:57
60 Anthony Hilchey Cycle Lodge 0:46:34 0:09:47 0:09:04 0:09:06 0:09:15 0:09:21
61 Preston Sanford Minuteman Road Club 0:46:52 0:08:31 0:11:19 0:09:07 0:09:16 0:08:38
62 Justin Baxter @over_the_bolts 0:47:31 0:09:07 0:09:10 0:09:35 0:09:28 0:10:10
63 Andrew Diebold 0:47:34 0:10:01 0:09:03 0:09:15 0:09:12 0:10:01
64 Max Winn Tridents 0:47:46 0:08:55 0:08:40 0:10:39 0:09:33 0:09:58
65 Miguel Rivera TEAM TRAVIS 0:47:52 0:08:21 0:08:30 0:08:40 0:09:55 0:12:24
66 0:48:33 0:10:28 0:09:23 0:09:37 0:09:20 0:09:43
67 John Geraghty 0:48:37 0:10:46 0:09:13 0:09:32 0:09:38 0:09:25
68 Christopher Gambardella Recycle A Bike 0:48:48 0:09:24 0:09:24 0:09:49 0:10:13 0:09:57
69 Bill Penton 0:48:52 0:10:44 0:09:38 0:09:30 0:09:27 0:09:31
70 Keith Landry Swansea Velo Club / Bikeworks Racin 0:49:19 0:10:03 0:09:15 0:09:53 0:09:51 0:10:16
71 Matthew Lennon 0:49:32 0:09:59 0:09:00 0:10:09 0:10:14 0:10:08
72 Steve Doty 0:51:34 0:10:36 0:10:14 0:10:07 0:10:17 0:10:18
73 David Baroody 0:51:42 0:11:00 0:09:50 0:10:24 0:10:19 0:10:07
74 John Lydon 0:52:37 0:10:58 0:10:13 0:10:19 0:10:35 0:10:30
75 Brian Rua SVC/Bikeworks 0:53:21 0:11:04 0:09:51 0:10:31 0:11:23 0:10:31
76 Scott Pakenham Aquidneck Cyclocross 0:53:21 0:10:52 0:10:20 0:11:04 0:10:32 0:10:32
77 Phinnara Has Upside Down Cross 0:43:41 0:10:56 0:10:52 0:11:22 0:10:29
78 Evan Berman Riverside Racing 0:43:49 0:10:43 0:10:55 0:11:01 0:11:09
79 James Casagrande NEMBA RACING 0:44:36 0:11:03 0:11:07 0:11:34 0:10:51
80 Joshua Lampe 0:45:54 0:11:10 0:11:22 0:12:00 0:11:21
81 Dylan Amaral 0:46:39 0:11:03 0:10:30 0:12:50 0:12:16
82 Scott Sherman Minuteman Road Club 0:51:16 0:12:19 0:12:59 0:13:14 0:12:42
83 Tom Morley 0:53:21 0:10:14 0:08:49 0:34:17
DNF John Langevin Competitive Edge Racing 0:10:32 0:11:04 0:14:22
Finishers: Cat 2: 1   Cat 3: 1   Cat 4: 35   Cat 5: 20   Cat ?: 27  
By Age: All | U20 | 20-29 | 30-39 | 40-49 | 50-59 | 60+ | Custom
By Category: All | Custom
Pl First NameLast NameTeamTime Lap 1 Lap 2 Lap 3 Lap 4 Lap 5 Lap 6
1 Nathaniel Gervez Rhino Bike Works 0:39:19 0:06:15 0:06:30 0:06:32 0:06:41 0:06:40 0:06:39
2 Colin Gould AP Junior Development p/b Corner Cy 0:40:10 0:06:32 0:06:41 0:06:31 0:06:45 0:06:46 0:06:53
3 Noah Peduzzi 545 Velo 0:40:43 0:06:30 0:06:47 0:06:33 0:06:58 0:06:57 0:06:56
4 Matt Zarotny Joe's Garage 0:40:57 0:06:30 0:06:44 0:06:52 0:06:58 0:06:56 0:06:54
5 Chris Mitchell Minuteman Road Club 0:41:04 0:06:32 0:06:47 0:06:53 0:06:57 0:06:58 0:06:56
6 Jonathan Brito-roman 1 PVD Cycling 0:41:20 0:07:22 0:07:00 0:06:51 0:06:41 0:06:40 0:06:44
7 Cosmo Catalano pedalpowertraining.com 0:41:36 0:06:36 0:07:10 0:06:52 0:06:53 0:07:00 0:07:02
8 Kenny Fries Scottee's Westport Bicycle 0:41:42 0:07:05 0:06:57 0:06:43 0:06:57 0:06:54 0:07:04
9 Glenn Soulia Stedmans Racing 0:41:57 0:06:38 0:06:59 0:06:59 0:07:04 0:07:03 0:07:10
10 Tyler Berman Riverside Racing 0:42:00 0:06:48 0:06:55 0:07:12 0:07:04 0:07:00 0:06:59
11 Steven Hopengarten Mad Alchemy 0:42:18 0:06:43 0:06:57 0:07:03 0:07:13 0:07:15 0:07:06
12 Matthew Reinhardt Aquidneck Cyclocross 0:42:22 0:06:41 0:07:01 0:07:14 0:07:07 0:07:08 0:07:08
13 C Todd Lombardo HUP United 0:42:24 0:06:58 0:07:02 0:07:09 0:07:02 0:07:06 0:07:05
14 Nicolas Arango MIT 0:42:41 0:07:37 0:06:59 0:07:12 0:06:44 0:07:08 0:06:58
15 Matt Bettencourt Burton MTB Coaching 0:42:49 0:07:04 0:07:06 0:07:05 0:07:02 0:07:15 0:07:15
16 Oscar Purwin Minuteman Road Club 0:43:06 0:07:19 0:07:15 0:07:06 0:07:01 0:07:15 0:07:07
17 Ian Stratton Minuteman Road Club 0:43:17 0:07:13 0:07:11 0:07:09 0:07:12 0:07:18 0:07:11
18 Scott Medeiros Team Tasty Treats 0:43:20 0:07:48 0:07:07 0:06:56 0:07:05 0:07:14 0:07:08
19 Daniel Kosuk 0:43:27 0:07:01 0:07:02 0:07:10 0:07:21 0:07:26 0:07:24
20 Pierre Gervez Rhino Bike Works 0:43:41 0:06:47 0:07:26 0:06:49 0:07:07 0:07:43 0:07:47
21 Chris Cosper Joe's Bike Shop Racing Team 0:43:45 0:07:22 0:07:40 0:07:57 0:07:39 0:07:24 0:05:40
22 Tucker Walsh HUP United 0:43:50 0:07:12 0:07:20 0:07:08 0:07:22 0:07:27 0:07:20
23 Adam Shutes Blue Hills Cycling Club 0:43:57 0:06:52 0:08:11 0:07:16 0:07:13 0:07:11 0:07:11
24 Keven Figueroa torres 1 PVD Cycling 0:44:03 0:07:31 0:07:15 0:07:33 0:07:18 0:07:18 0:07:06
25 Vladimir Capka Riverside Racing 0:44:05 0:07:32 0:07:12 0:07:24 0:07:16 0:07:25 0:07:14
26 Kevin Callahan CYCLE LODGE 0:44:07 0:07:09 0:07:26 0:07:17 0:07:23 0:07:32 0:07:17
27 Chad Gibson 545 Velo 0:44:12 0:07:15 0:07:15 0:07:16 0:07:31 0:07:33 0:07:19
28 David Belknap Cycle Lodge 0:44:13 0:07:08 0:07:19 0:07:23 0:07:24 0:07:30 0:07:26
29 Robert Hildebrandt cape cod cycling club 0:44:14 0:07:20 0:07:18 0:07:22 0:07:26 0:07:27 0:07:19
30 Philip Golden Blue Hills Cycling Club 0:44:16 0:07:39 0:07:39 0:07:15 0:07:14 0:07:16 0:07:10
31 Derek Griggs Recycled Sports 0:44:18 0:07:14 0:07:23 0:07:25 0:07:28 0:07:27 0:07:19
32 Christopher Tully 545 Velo 0:44:23 0:07:47 0:07:22 0:07:25 0:07:20 0:07:15 0:07:12
33 Aaron Roberts AP Junior Development p/b Corner Cy 0:44:25 0:07:58 0:07:17 0:07:08 0:07:17 0:07:24 0:07:18
34 Jake Allegrini 0:44:35 0:07:59 0:07:23 0:07:22 0:07:13 0:07:17 0:07:19
35 Lewis Collins 545 Velo 0:44:58 0:07:30 0:07:22 0:07:29 0:07:32 0:07:32 0:07:30
36 Tobias Ehrenberger B2C2 p/b JRA Cycles 0:45:08 0:07:45 0:07:23 0:07:38 0:07:20 0:07:28 0:07:31
37 James Falconeiri AP Junior Development p/b Corner Cy 0:45:16 0:07:36 0:07:18 0:07:34 0:07:32 0:07:42 0:07:31
38 Daryl Beck NCC 0:45:18 0:07:32 0:07:42 0:07:39 0:07:30 0:07:31 0:07:22
39 David Goodwin Northampton Cycling Club 0:45:22 0:07:34 0:07:37 0:07:38 0:07:29 0:07:34 0:07:27
40 Brian Massey Minuteman Road Club 0:45:27 0:07:35 0:07:50 0:07:50 0:07:35 0:07:19 0:07:16
41 Michael Chiauzzi Minuteman Road Club 0:45:28 0:07:38 0:07:27 0:07:26 0:07:35 0:07:51 0:07:29
42 Ethan Frost First State Velo Sport / Henry's Bi 0:45:31 0:07:39 0:07:36 0:07:33 0:07:38 0:07:33 0:07:31
43 Andrew Chalmers 0:45:54 0:08:45 0:07:41 0:07:20 0:07:19 0:07:26 0:07:21
44 Tom Catalano Essex County Velo 0:45:56 0:07:51 0:07:36 0:07:39 0:07:42 0:07:32 0:07:33
45 Eric Hallman Grace Bicycles Velo Club 0:46:04 0:07:59 0:07:30 0:07:33 0:07:35 0:07:46 0:07:39
46 Thomas Urbanik pedalpowertraining.com 0:46:06 0:07:44 0:07:23 0:08:04 0:07:46 0:07:31 0:07:35
47 Daniel Russell Cycle Lodge 0:46:08 0:08:06 0:07:37 0:07:34 0:07:36 0:07:33 0:07:40
48 Jerry De zutter 545 Velo 0:46:12 0:07:24 0:07:36 0:07:42 0:07:53 0:08:04 0:07:30
49 James Paterson SpinArts 0:46:33 0:07:41 0:07:40 0:07:44 0:07:42 0:07:46 0:07:57
50 Christopher Kochanski Bikebarn Racing 0:46:33 0:08:25 0:07:30 0:07:30 0:07:31 0:07:55 0:07:41
51 Danny Saccoccio SVC Bikeworks Racing 0:47:00 0:07:46 0:07:42 0:07:44 0:07:40 0:08:08 0:07:57
52 Eric Derivera Peak Racing / Valley Bike & Ski We 0:47:03 0:07:31 0:07:32 0:07:29 0:07:35 0:07:29 0:09:24
53 Liam Goff AP Junior Development p/b Corner Cy 0:47:30 0:07:55 0:07:36 0:07:38 0:07:35 0:08:26 0:08:18
54 Michael Bradford State 9 Racing p/b Vittoria 0:39:39 0:07:55 0:08:08 0:07:48 0:07:54 0:07:52
55 Matthew Worstell 0:39:43 0:08:08 0:07:56 0:07:46 0:08:01 0:07:50
56 Randy Boneta Blue Collar Racing 0:39:54 0:08:01 0:08:02 0:07:55 0:07:55 0:07:58
57 Stephen Furrer Cape Cod Racing / C4 0:39:55 0:08:12 0:07:54 0:07:54 0:07:58 0:07:55
58 John Talbot 0:40:34 0:08:32 0:07:45 0:07:57 0:08:03 0:08:15
59 Jay Glickman 0:40:35 0:08:55 0:08:03 0:07:47 0:07:42 0:08:06
60 John Tickle BikeWorks/swansea velo club 0:40:41 0:08:27 0:07:43 0:07:51 0:08:39 0:08:00
61 David Bancroft Endurance Threads 0:41:01 0:08:42 0:08:16 0:07:55 0:08:04 0:08:02
62 Haldon Bryer 545 Velo 0:41:14 0:08:36 0:07:57 0:08:13 0:08:17 0:08:09
63 Christopher Burke NBX/Narragansett Beer 0:42:05 0:08:38 0:08:26 0:08:30 0:08:22 0:08:07
64 Cole Ricardi Team Horst Sports 0:42:09 0:07:57 0:08:02 0:08:28 0:08:56 0:08:44
65 Tom Stevens Spin Arts Cycling Cycling 0:42:16 0:08:39 0:08:30 0:08:26 0:08:24 0:08:16
66 Anthony Melfi Bike Path Pictures, Inc 0:42:18 0:09:16 0:08:06 0:08:18 0:08:19 0:08:16
67 Thomas Ricardi Team Horst Sports 0:42:19 0:08:19 0:08:42 0:08:41 0:08:28 0:08:07
68 Jeff Clare 0:42:59 0:08:34 0:08:49 0:08:29 0:08:31 0:08:34
69 Varoujan Hagopian Minuteman Road Club 0:43:07 0:08:41 0:08:31 0:08:30 0:08:39 0:08:44
70 Christopher Stevens Piche’s Ski and Bike 0:43:11 0:09:01 0:08:12 0:08:33 0:08:37 0:08:47
71 Scott Kirschner Blue Hills Cycling Club 0:43:37 0:08:51 0:08:37 0:08:44 0:08:46 0:08:37
72 Kurt Maw Comp Racing 0:44:01 0:08:31 0:08:23 0:08:43 0:09:11 0:09:11
73 Christopher Shardlow White Pond Racing 0:44:43 0:09:13 0:08:43 0:08:55 0:09:09 0:08:41
74 Chris Noonan 0:45:59 0:09:23 0:08:53 0:09:24 0:09:08 0:09:08
75 Lawrence Purtill Stedmans/MeltSnow Racing 0:46:54 0:09:22 0:09:22 0:09:22 0:09:22 0:09:22
76 Eric Brassell 545 Velo 0:47:22 0:08:30 0:09:12 0:09:58 0:09:50 0:09:52
77 Zachary Montalto 545 Velo 0:40:33 0:09:27 0:09:37 0:11:17 0:10:10
DNF John Mosher Wheelworks Racing 0:07:06 0:07:26
DNF Robert Hoenick SVC\Bikeworks 0:07:18 0:09:02
DNF Shawn Barber Dukes County Boneshakers 0:08:05 0:09:38
DNF Henry Van den broek pedalpowertraining.com 0:09:21
Finishers: Cat 2: 3   Cat 3: 38   Cat 4: 29   Cat 5: 3   Cat ?: 8  
By Age: All | U20 | 20-29 | 30-39 | 40-49 | 50-59 | 60+ | Custom
By Category: All | Custom
Pl First NameLast NameTeamTime Lap 1 Lap 2 Lap 3 Lap 4 Lap 5 Lap 6
1 Leslie Lupien Apex Velo - Velocio 0:44:40 0:07:31 0:07:32 0:07:24 0:07:14 0:07:23 0:07:33
2 Stephanie Makoujy 0:49:03 0:08:02 0:08:01 0:08:04 0:08:14 0:08:16 0:08:22
3 Diana Burk NCVC/UnitedHealthcare 0:49:48 0:08:19 0:07:54 0:08:31 0:08:29 0:08:07 0:08:25
4 Elena Svenstrup AP Junior Development p/b Corner Cy 0:44:02 0:08:52 0:08:49 0:08:33 0:08:51 0:08:55
5 Jennifer Minery Pedal Power Training 0:44:42 0:08:42 0:08:32 0:09:09 0:09:06 0:09:11
6 Sheaumei Tsai HUP 0:49:26 0:10:07 0:10:07 0:09:35 0:09:41 0:09:54
7 Jessica Howland Fritz’s Bicycle Shop 0:42:54 0:10:09 0:10:39 0:10:39 0:11:25
8 Karen Purtill Stedmans/MeltSnow Racing 0:44:31 0:10:53 0:11:00 0:11:11 0:11:25
9 Lesli Cohen Fritz's Bicycle Shop 0:52:42 0:12:30 0:14:02 0:13:22 0:12:47
Finishers: Cat 2: 1   Cat 3: 4   Cat 4: 2   Cat 5: 1   Cat ?: 1  
By Age: All | U20 | 20-29 | 30-39 | 40-49 | 50-59 | 60+ | Custom
By Category: All | Custom
Pl First NameLast NameTeamTime Lap 1 Lap 2 Lap 3 Lap 4 Lap 5 Lap 6
1 Emily Curley Corner Cycle 0:47:34 0:06:54 0:06:42 0:06:38 0:06:45 0:06:43 0:06:47
2 Anja Meichsner Wheelworks Racing 0:48:46 0:07:07 0:06:50 0:06:54 0:06:50 0:07:00 0:06:59
3 Danielle Power Corner Cycle 0:49:24 0:07:11 0:07:00 0:06:57 0:07:03 0:07:00 0:07:03
4 Meghan Owens RSCX - HOUSE INDUSTRIES 0:49:34 0:07:20 0:07:00 0:07:00 0:07:02 0:07:03 0:07:03
5 Kim Coleman 0:49:40 0:07:22 0:07:04 0:06:58 0:07:03 0:07:02 0:07:03
6 Leslie Lupien Apex Velo - Velocio 0:51:05 0:07:25 0:07:22 0:07:25 0:07:23 0:07:21 0:07:06
7 Betty Hasse AP Junior Development p/b Corner Cy 0:51:16 0:07:33 0:07:16 0:07:16 0:07:15 0:07:23 0:07:15
8 Katherine Rusch BikeReg | Share Coffee 0:51:54 0:07:26 0:07:17 0:07:21 0:07:23 0:07:21 0:07:23
9 Sydney Wenger La Vie Alpo 0:52:56 0:07:44 0:07:40 0:07:22 0:07:30 0:07:25 0:07:21
10 Caitrin Huysman BikeReg | Share Coffee 0:53:17 0:07:39 0:07:31 0:07:35 0:07:32 0:07:25 0:07:34
11 Kim Shattuck PBM Coaching 0:53:28 0:07:40 0:07:43 0:07:35 0:07:20 0:07:35 0:07:45
12 Katelyn Parhiala B2C2 p/b JRA Cycles 0:54:43 0:07:53 0:07:44 0:07:39 0:07:43 0:07:57 0:07:53
13 Michele Smith Hup United 0:55:26 0:08:03 0:08:04 0:07:52 0:07:49 0:07:45 0:07:57
14 Cathy Rowell TwoAdventures - Bikeway Source Raci 0:49:32 0:08:27 0:07:58 0:08:08 0:08:21 0:08:10 0:08:26
15 Jennifer Minery Pedal Power Training 0:49:33 0:08:26 0:08:07 0:08:07 0:08:12 0:08:18 0:08:20
16 Sophie Cosper 0:49:59 0:08:25 0:08:10 0:08:16 0:08:13 0:08:26 0:08:26
17 Elvira Stridsberg Community Bicycle Racing 0:50:34 0:08:37 0:08:09 0:08:03 0:08:27 0:08:43 0:08:32
18 Nikki Montanaro Ladies First 0:51:16 0:08:28 0:08:49 0:08:29 0:08:34 0:08:20 0:08:34
19 Stephanie Aldrich B2C2 p/b JRA Cycles 0:52:02 0:08:33 0:08:28 0:08:41 0:08:30 0:08:45 0:09:01
20 Rebecca Zanconato 0:56:49 0:08:27 0:09:51 0:09:11 0:09:52 0:09:40 0:09:45
DNF Michele Satrowsky Riverside Racing 0:08:31 0:08:10 0:08:00
DNF Susan Mcdonough BMB Racing
Finishers: Cat 1: 3   Cat 2: 6   Cat 3: 12   Cat 4: 1  
By Age: All | U20 | 20-29 | 30-39 | 40-49 | 50-59 | 60+ | Custom
By Category: All | Custom
Pl First NameLast NameTeamTime Lap 1 Lap 2
1 Elena Svenstrup AP Junior Development p/b Corner Cy 0:17:56 0:09:19 0:08:36
2 Emily Siminski Devo Cape Cod 0:18:18 0:09:15 0:09:02
3 Caitlin Craddock DEVO cycling Cape Cod 0:18:57 0:09:48 0:09:09
4 Kate Winn Tridents 0:23:23 0:11:54 0:11:29
5 Lilah Devine Baltimore Youth Cycling 0:31:23 0:15:59 0:15:24
6 Juliet Devine Baltimore Youth Cycling 0:32:00 0:16:27 0:15:32
7 Iris Lampe 0:33:37 0:15:01 0:18:35
8 Eleanor Goff Aquidneck Cyclocross 0:33:37 0:14:25 0:19:11
9 Willa Harple Aquidneck Cyclocross 0:33:37 0:14:43 0:18:53
Finishers: Cat 5: 8   Cat ?: 1  
By Age: All | U20 | 20-29 | 30-39 | 40-49 | 50-59 | 60+ | Custom
By Category: All | Custom
Pl First NameLast NameTeamTime Lap 1 Lap 2 Lap 3 Lap 4 Lap 5
1 Desen Ozkan B2C2 p/b JRA Cycles 0:41:08 0:08:23 0:08:12 0:08:06 0:08:17 0:08:09
2 Kate Barash-Engel 0:41:10 0:08:34 0:08:10 0:08:04 0:08:14 0:08:06
3 Kelsey Mcginnis Bikeworks/Swansea Velo 0:42:42 0:08:53 0:08:19 0:08:29 0:08:29 0:08:30
4 Malia Koppin Wheelworks Multisport 0:44:09 0:08:58 0:08:40 0:08:39 0:08:48 0:09:03
5 Mia Barrus AP Junior Development p/b Corner Cy 0:45:12 0:08:52 0:09:15 0:09:08 0:08:58 0:08:57
6 Michaela Pelletier 0:45:44 0:09:04 0:09:10 0:09:11 0:09:11 0:09:06
7 Heather Hughes 0:45:59 0:09:19 0:09:10 0:09:13 0:09:05 0:09:10
8 Serefina Krajewska AP Junior Development p/b Corner Cy 0:46:04 0:09:34 0:08:56 0:09:05 0:09:02 0:09:25
9 Sarah Proctor The Velo Resource 0:46:04 0:09:05 0:09:07 0:09:09 0:09:24 0:09:17
10 Trish Cundiff C4/Seasports 0:46:24 0:09:10 0:09:05 0:09:17 0:09:29 0:09:21
11 Maria Garman 0:46:57 0:08:22 0:08:13 0:08:47 0:08:41 0:12:53
12 Kelly Foss Bikeworks/ SVC 0:47:51 0:09:41 0:09:20 0:09:43 0:09:34 0:09:32
13 Nancy Byatt 0:49:16 0:10:06 0:09:48 0:09:47 0:09:50 0:09:43
14 Anne Melvin 545 Velo 0:49:28 0:10:01 0:10:09 0:09:55 0:09:43 0:09:37
15 Cheryl Del colle SVC/Bikeworks 0:49:55 0:10:34 0:09:45 0:10:00 0:09:45 0:09:49
16 Rebecca Guy-hamilton 0:49:58 0:10:44 0:10:21 0:09:53 0:09:35 0:09:24
17 Heather Abrams HUP United 0:50:15 0:09:58 0:10:09 0:09:57 0:10:10 0:09:58
18 Tracy Sherman Minuteman Road Club 0:41:18 0:10:13 0:10:23 0:10:26 0:10:15
19 Karen Purtill Stedmans/MeltSnow Racing 0:41:47 0:10:25 0:10:29 0:10:23 0:10:29
20 Melissa Giesta 0:41:50 0:11:29 0:10:01 0:10:02 0:10:17
21 Monica Avery 0:42:22 0:10:23 0:10:13 0:10:42 0:11:03
22 Phoebe Matthews 0:43:52 0:12:31 0:10:38 0:10:19 0:10:22
23 Sarah Lampe 0:44:11 0:11:50 0:10:54 0:10:36 0:10:49
24 Erica Gennaro 0:44:41 0:11:44 0:11:07 0:10:57 0:10:51
25 Tiffany Hogan 0:44:56 0:12:10 0:10:49 0:11:11 0:10:45
26 Kate Leppanen pedalpowertraining.com 0:45:16 0:11:56 0:11:03 0:11:16 0:10:59
27 Lee Bailey 0:45:45 0:11:28 0:11:15 0:11:26 0:11:35
28 Melissa Gardel 0:46:19 0:11:53 0:11:35 0:11:25 0:11:24
29 Jen Robbins 0:46:37 0:12:13 0:11:16 0:11:36 0:11:30
30 Angela Naeth Girls Get Gritty / I Race Like A Gi 0:49:17 0:12:38 0:11:33 0:12:13 0:12:51
31 Marianne Lee 0:49:43 0:11:55 0:12:11 0:12:32 0:13:04
32 Marie Esten Hillsborough Hawks 0:41:39 0:13:08 0:13:43 0:14:46
33 Christine Saleeba 0:43:15 0:13:46 0:14:12 0:15:16
34 Hilary Finnegan 0:46:09 0:15:03 0:14:47 0:16:18
DNF Andrea Laplume 0:12:12 0:12:47 0:13:52
DNF Sandra Delgrosso Errace 0:09:55
Finishers: Cat 3: 2   Cat 4: 10   Cat 5: 6   Cat ?: 18